createdAt,value
2018-06-01T00:03:46.618Z,100895.48
2018-06-01T00:08:41.359Z,100902.66
2018-06-01T00:13:35.856Z,100913.19
2018-06-01T00:18:30.427Z,100917.66
2018-06-01T00:23:25.185Z,100908.28
2018-06-01T00:28:19.696Z,100907.25
2018-06-01T00:33:14.035Z,100892.25
2018-06-01T00:38:08.419Z,100888.27
2018-06-01T00:43:03.410Z,100889.71
2018-06-01T00:47:57.880Z,100888.63
2018-06-01T00:52:53.409Z,100891.82
2018-06-01T00:57:49.234Z,100880.77
2018-06-01T01:02:44.982Z,100881.58
2018-06-01T01:07:40.234Z,100879.20
2018-06-01T01:12:36.231Z,100896.33
2018-06-01T01:17:31.495Z,100894.89
2018-06-01T01:22:26.094Z,100897.91
2018-06-01T01:27:20.490Z,100905.61
2018-06-01T01:32:14.881Z,100921.84
2018-06-01T01:37:09.881Z,100933.92
2018-06-01T01:42:05.110Z,100939.80
2018-06-01T01:47:00.561Z,100924.80
2018-06-01T01:51:55.102Z,100908.98
2018-06-01T01:56:49.513Z,100896.34
2018-06-01T02:01:43.903Z,100890.83
2018-06-01T02:06:38.316Z,100889.09
2018-06-01T02:11:33.710Z,100884.17
2018-06-01T02:16:29.875Z,100880.23
2018-06-01T02:21:25.495Z,100869.45
2018-06-01T02:26:23.025Z,100864.55
2018-06-01T02:31:18.890Z,100873.06
2018-06-01T02:36:14.317Z,100870.86
2018-06-01T02:41:08.925Z,100869.83
2018-06-01T02:46:03.281Z,100833.92
2018-06-01T02:50:57.694Z,100813.60
2018-06-01T02:55:52.497Z,100823.02
2018-06-01T03:00:46.882Z,100847.48
2018-06-01T03:05:41.270Z,100865.58
2018-06-01T03:10:35.723Z,100873.14
2018-06-01T03:15:30.216Z,100884.03
2018-06-01T03:20:24.716Z,100896.16
2018-06-01T03:25:19.100Z,100896.16
2018-06-01T03:30:13.529Z,100933.11
2018-06-01T03:35:07.901Z,100988.94
2018-06-01T03:40:02.392Z,101011.89
2018-06-01T03:44:56.811Z,101035.81
2018-06-01T03:49:51.396Z,101028.84
2018-06-01T03:54:45.931Z,101034.84
2018-06-01T03:59:40.382Z,101034.74
2018-06-01T04:04:35.599Z,100998.41
2018-06-01T04:09:30.139Z,101001.38
2018-06-01T04:14:24.543Z,101018.14
2018-06-01T04:19:18.948Z,101014.67
2018-06-01T04:24:13.113Z,101007.58
2018-06-01T04:29:08.257Z,101009.50
2018-06-01T04:34:02.615Z,101009.30
2018-06-01T04:38:57.155Z,101013.25
2018-06-01T04:43:52.312Z,101004.55
2018-06-01T04:48:46.694Z,101010.90
2018-06-01T04:53:41.067Z,101017.70
2018-06-01T04:58:35.434Z,101021.31
2018-06-01T05:03:29.819Z,100999.37
2018-06-01T05:08:25.225Z,100984.78
2018-06-01T05:13:19.623Z,100984.58
2018-06-01T05:18:14.740Z,100980.54
2018-06-01T05:23:09.875Z,100979.24
2018-06-01T05:28:04.316Z,100973.95
2018-06-01T05:32:58.667Z,100958.25
2018-06-01T05:37:53.807Z,100953.61
2018-06-01T05:42:48.167Z,100953.62
2018-06-01T05:47:42.648Z,100948.61
2018-06-01T05:52:37.037Z,100950.62
2018-06-01T05:57:31.599Z,100948.25
2018-06-01T06:02:26.727Z,100952.08
2018-06-01T06:07:21.853Z,100954.69
2018-06-01T06:12:16.179Z,100963.64
2018-06-01T06:17:10.559Z,100965.38
2018-06-01T06:22:05.163Z,100963.19
2018-06-01T06:26:59.551Z,100958.45
2018-06-01T06:31:54.657Z,100958.36
2018-06-01T06:36:49.043Z,100972.52
2018-06-01T06:41:43.659Z,100978.78
2018-06-01T06:46:38.033Z,100982.59
2018-06-01T06:51:32.400Z,100977.59
2018-06-01T06:56:27.881Z,100986.11
2018-06-01T07:01:22.263Z,100983.39
2018-06-01T07:06:16.779Z,100994.48
2018-06-01T07:11:11.149Z,101004.30
2018-06-01T07:16:05.512Z,101008.76
2018-06-01T07:21:00.163Z,101014.77
2018-06-01T07:25:54.393Z,101021.52
2018-06-01T07:30:48.854Z,101021.73
2018-06-01T07:35:43.403Z,101031.53
2018-06-01T07:40:37.920Z,101036.97
2018-06-01T07:45:32.596Z,101041.75
2018-06-01T07:50:27.315Z,101039.17
2018-06-01T07:55:21.934Z,101035.84
2018-06-01T08:00:16.946Z,101034.17
2018-06-01T08:05:11.382Z,101043.62
2018-06-01T08:10:06.707Z,101049.58
2018-06-01T08:15:01.165Z,101051.88
2018-06-01T08:19:55.545Z,101046.11
2018-06-01T08:24:50.819Z,101045.66
2018-06-01T08:29:45.415Z,101044.77
2018-06-01T08:34:39.914Z,101049.58
2018-06-01T08:39:34.357Z,101048.27
2018-06-01T08:44:28.959Z,101058.45
2018-06-01T08:49:24.390Z,101056.44
2018-06-01T08:54:18.910Z,101060.91
2018-06-01T08:59:13.817Z,101065.45
2018-06-01T09:04:09.003Z,101070.43
2018-06-01T09:09:03.454Z,101072.30
2018-06-01T09:13:58.038Z,101079.04
2018-06-01T09:18:52.449Z,101084.63
2018-06-01T09:23:46.818Z,101075.09
2018-06-01T09:28:41.411Z,101084.59
2018-06-01T09:33:35.762Z,101091.22
2018-06-01T09:38:30.281Z,101089.91
2018-06-01T09:43:25.502Z,101089.03
2018-06-01T09:48:21.235Z,101090.78
2018-06-01T09:53:15.612Z,101090.17
2018-06-01T09:58:10.229Z,101093.59
2018-06-01T10:03:04.681Z,101093.55
2018-06-01T10:08:00.087Z,101091.41
2018-06-01T10:12:55.217Z,101094.23
2018-06-01T10:17:51.173Z,101097.84
2018-06-01T10:22:45.523Z,101089.01
2018-06-01T10:27:39.888Z,101092.73
2018-06-01T10:32:34.378Z,101098.72
2018-06-01T10:37:29.241Z,101097.78
2018-06-01T10:42:23.593Z,101103.00
2018-06-01T10:47:19.007Z,101109.38
2018-06-01T10:52:14.215Z,101108.23
2018-06-01T10:57:08.603Z,101109.16
2018-06-01T11:02:03.155Z,101108.48
2018-06-01T11:06:58.369Z,101117.45
2018-06-01T11:11:53.466Z,101113.58
2018-06-01T11:16:47.861Z,101115.56
2018-06-01T11:21:43.744Z,101118.59
2018-06-01T11:26:38.282Z,101122.79
2018-06-01T11:31:32.878Z,101123.82
2018-06-01T11:36:27.240Z,101128.65
2018-06-01T11:41:22.448Z,101128.07
2018-06-01T11:46:17.362Z,101124.68
2018-06-01T11:51:11.833Z,101127.30
2018-06-01T11:56:06.913Z,101124.44
2018-06-01T12:01:02.274Z,101123.45
2018-06-01T12:05:56.910Z,101126.23
2018-06-01T12:10:51.333Z,101121.73
2018-06-01T12:15:45.839Z,101124.87
2018-06-01T12:20:40.991Z,101127.06
2018-06-01T12:25:35.411Z,101125.63
2018-06-01T12:30:30.261Z,101131.77
2018-06-01T12:35:24.615Z,101127.29
2018-06-01T12:40:19.376Z,101138.00
2018-06-01T12:45:13.737Z,101134.53
2018-06-01T12:50:09.315Z,101138.00
2018-06-01T12:55:03.681Z,101138.55
2018-06-01T12:59:58.065Z,101139.14
2018-06-01T13:04:52.659Z,101141.25
2018-06-01T13:09:47.099Z,101147.50
2018-06-01T13:14:41.467Z,101143.48
2018-06-01T13:19:35.822Z,101140.09
2018-06-01T13:24:30.326Z,101145.90
2018-06-01T13:29:24.777Z,101142.41
2018-06-01T13:34:20.027Z,101131.99
2018-06-01T13:39:14.421Z,101134.53
2018-06-01T13:44:08.788Z,101132.66
2018-06-01T13:49:04.000Z,101131.89
2018-06-01T13:53:58.693Z,101133.16
2018-06-01T13:58:53.187Z,101147.66
2018-06-01T14:03:47.613Z,101152.17
2018-06-01T14:08:42.114Z,101143.76
2018-06-01T14:13:36.517Z,101150.30
2018-06-01T14:18:30.875Z,101141.24
2018-06-01T14:23:25.237Z,101141.66
2018-06-01T14:28:20.458Z,101143.52
2018-06-01T14:33:14.818Z,101145.69
2018-06-01T14:38:09.953Z,101142.09
2018-06-01T14:43:05.260Z,101144.27
2018-06-01T14:48:00.400Z,101152.00
2018-06-01T14:52:56.556Z,101145.91
2018-06-01T14:57:51.185Z,101141.63
2018-06-01T15:02:46.429Z,101147.44
2018-06-01T15:07:40.833Z,101147.29
2018-06-01T15:12:35.303Z,101149.69
2018-06-01T15:17:30.172Z,101152.09
2018-06-01T15:22:24.594Z,101156.47
2018-06-01T15:27:19.760Z,101154.07
2018-06-01T15:32:14.141Z,101159.68
2018-06-01T15:37:08.637Z,101161.02
2018-06-01T15:42:03.374Z,101162.24
2018-06-01T15:46:58.105Z,101157.52
2018-06-01T15:51:52.742Z,101173.08
2018-06-01T15:56:48.322Z,101171.87
2018-06-01T16:01:43.026Z,101178.43
2018-06-01T16:06:37.759Z,101183.35
2018-06-01T16:11:33.378Z,101184.83
2018-06-01T16:16:28.065Z,101182.03
2018-06-01T16:21:22.615Z,101189.63
2018-06-01T16:26:17.000Z,101195.64
2018-06-01T16:31:12.289Z,101197.04
2018-06-01T16:36:05.921Z,101189.26
2018-06-01T16:41:01.051Z,101199.22
2018-06-01T16:45:55.418Z,101199.13
2018-06-01T16:50:49.868Z,101200.55
2018-06-01T16:55:44.236Z,101197.27
2018-06-01T17:00:39.400Z,101194.00
2018-06-01T17:05:33.786Z,101196.95
2018-06-01T17:10:28.185Z,101205.34
2018-06-01T17:15:22.335Z,101207.17
2018-06-01T17:20:16.715Z,101216.55
2018-06-01T17:25:11.087Z,101223.81
2018-06-01T17:30:06.243Z,101223.98
2018-06-01T17:35:00.869Z,101232.95
2018-06-01T17:39:55.283Z,101236.59
2018-06-01T17:44:49.644Z,101243.06
2018-06-01T17:49:44.016Z,101247.31
2018-06-01T17:54:39.395Z,101249.17
2018-06-01T17:59:33.791Z,101258.72
2018-06-01T18:04:28.188Z,101263.44
2018-06-01T18:09:22.622Z,101270.32
2018-06-01T18:14:17.061Z,101261.10
2018-06-01T18:19:12.222Z,101269.45
2018-06-01T18:24:06.108Z,101268.41
2018-06-01T18:29:01.426Z,101268.20
2018-06-01T18:33:55.803Z,101272.40
2018-06-01T18:38:51.078Z,101265.20
2018-06-01T18:43:45.481Z,101266.59
2018-06-01T18:48:39.874Z,101263.44
2018-06-01T18:53:34.342Z,101266.90
2018-06-01T18:58:28.704Z,101270.45
2018-06-01T19:03:23.085Z,101272.14
2018-06-01T19:08:17.793Z,101271.73
2018-06-01T19:13:12.167Z,101275.89
2018-06-01T19:18:06.062Z,101274.78
2018-06-01T19:23:01.424Z,101274.56
2018-06-01T19:27:55.801Z,101275.59
2018-06-01T19:32:50.155Z,101281.88
2018-06-01T19:37:44.521Z,101270.84
2018-06-01T19:42:38.962Z,101280.09
2018-06-01T19:47:33.529Z,101281.56
2018-06-01T19:52:27.958Z,101280.40
2018-06-01T19:57:22.355Z,101286.17
2018-06-01T20:02:16.831Z,101293.38
2018-06-01T20:07:11.236Z,101304.30
2018-06-01T20:12:05.611Z,101311.69
2018-06-01T20:17:00.013Z,101314.06
2018-06-01T20:21:55.159Z,101319.86
2018-06-01T20:26:49.595Z,101312.42
2018-06-01T20:31:45.929Z,101313.89
2018-06-01T20:36:40.473Z,101311.16
2018-06-01T20:41:35.695Z,101316.59
2018-06-01T20:46:30.808Z,101318.47
2018-06-01T20:51:25.205Z,101314.44
2018-06-01T20:56:19.753Z,101313.97
2018-06-01T21:01:14.271Z,101319.72
2018-06-01T21:06:08.648Z,101323.53
2018-06-01T21:11:04.113Z,101319.46
2018-06-01T21:15:58.723Z,101317.17
2018-06-01T21:20:53.123Z,101325.53
2018-06-01T21:25:47.726Z,101331.28
2018-06-01T21:30:42.096Z,101331.58
2018-06-01T21:35:37.243Z,101336.38
2018-06-01T21:40:31.758Z,101338.73
2018-06-01T21:45:26.104Z,101340.89
2018-06-01T21:50:20.569Z,101336.36
2018-06-01T21:55:14.984Z,101339.77
2018-06-01T22:00:09.146Z,101339.59
2018-06-01T22:05:04.294Z,101347.16
2018-06-01T22:09:58.661Z,101349.84
2018-06-01T22:14:53.798Z,101353.79
2018-06-01T22:19:48.146Z,101357.69
2018-06-01T22:24:42.370Z,101356.78
2018-06-01T22:29:37.494Z,101362.34
2018-06-01T22:34:32.620Z,101353.70
2018-06-01T22:39:27.789Z,101362.52
2018-06-01T22:44:22.179Z,101361.30
2018-06-01T22:49:16.764Z,101363.45
2018-06-01T22:54:11.338Z,101356.88
2018-06-01T22:59:05.842Z,101358.64
2018-06-01T23:04:00.982Z,101356.65
2018-06-01T23:08:56.121Z,101355.78
2018-06-01T23:13:50.499Z,101356.22
2018-06-01T23:18:45.698Z,101348.17
2018-06-01T23:23:40.093Z,101346.88
2018-06-01T23:28:34.478Z,101342.50
2018-06-01T23:33:29.120Z,101344.75
2018-06-01T23:38:24.065Z,101336.40
2018-06-01T23:43:19.684Z,101329.47
2018-06-01T23:48:14.884Z,101322.55
2018-06-01T23:53:10.079Z,101326.73
2018-06-01T23:58:04.436Z,101319.12
